Time;durP1;ratioP1;P1;durP2;ratioP2;P2;SDS_P1;SDS_P2;PMS_P1;PMS_P2;Temp;Humidity;BMP_temperature;BMP_pressure;BME280_temperature;BME280_humidity;BME280_pressure;Samples;Min_cycle;Max_cycle;Signal;HPM_P1;HPM_P2
2021/12/10 00:01:10;;;;;;;25.58;19.02;;;1.20;99.90;;;;;;4887704;29;20511;-80
2021/12/10 00:03:43;;;;;;;25.90;16.10;;;1.20;99.90;;;;;;4885466;29;20044;-79
2021/12/10 00:06:34;;;;;;;24.95;19.25;;;1.20;99.90;;;;;;4901037;29;20049;-79
2021/12/10 00:09:22;;;;;;;24.38;18.00;;;1.20;99.90;;;;;;4884885;29;20052;-80
2021/12/10 00:11:53;;;;;;;27.67;18.60;;;1.20;99.90;;;;;;4900579;29;20041;-80
2021/12/10 00:14:26;;;;;;;29.10;17.95;;;1.20;99.90;;;;;;4888449;29;20043;-80
2021/12/10 00:16:54;;;;;;;23.88;17.40;;;1.20;99.90;;;;;;4886092;29;20052;-80
2021/12/10 00:21:53;;;;;;;24.95;16.00;;;1.20;99.90;;;;;;4893401;29;20049;-80
2021/12/10 00:24:24;;;;;;;25.85;16.15;;;1.20;99.90;;;;;;4885857;29;20155;-80
2021/12/10 00:26:52;;;;;;;25.50;16.75;;;1.20;99.90;;;;;;4885375;29;20051;-80
2021/12/10 00:29:20;;;;;;;21.15;16.55;;;1.20;99.90;;;;;;4901152;29;20053;-80
2021/12/10 00:31:53;;;;;;;24.80;15.90;;;1.20;99.90;;;;;;4902570;29;20068;-80
2021/12/10 00:34:42;;;;;;;20.88;16.17;;;1.20;99.90;;;;;;4888255;29;20530;-80
2021/12/10 00:37:13;;;;;;;24.67;16.35;;;1.20;99.90;;;;;;4900234;29;20053;-80
2021/12/10 00:39:56;;;;;;;20.73;16.55;;;1.10;99.90;;;;;;4886917;29;20059;-80
2021/12/10 00:42:32;;;;;;;24.75;16.63;;;1.10;99.90;;;;;;4883182;29;20072;-80
2021/12/10 00:45:00;;;;;;;24.90;17.42;;;1.10;99.90;;;;;;4900627;29;20509;-80
2021/12/10 00:47:29;;;;;;;23.10;15.75;;;1.20;99.90;;;;;;4900855;29;20049;-80
2021/12/10 00:49:57;;;;;;;25.30;15.32;;;1.20;99.90;;;;;;4890082;29;20044;-80
2021/12/10 00:52:24;;;;;;;30.17;17.58;;;1.20;99.90;;;;;;4886572;29;20040;-80
2021/12/10 00:54:52;;;;;;;27.48;16.10;;;1.10;99.90;;;;;;4886325;29;20052;-80
2021/12/10 00:57:20;;;;;;;25.50;15.88;;;1.10;99.90;;;;;;4886885;29;20060;-80
2021/12/10 00:59:48;;;;;;;23.83;16.92;;;1.10;99.90;;;;;;4901592;29;20088;-80
2021/12/10 01:02:19;;;;;;;23.63;15.10;;;1.20;99.90;;;;;;4886682;29;20059;-80
2021/12/10 01:04:50;;;;;;;26.60;17.95;;;1.20;99.90;;;;;;4899993;29;20116;-81
2021/12/10 01:07:21;;;;;;;25.00;18.85;;;1.10;99.90;;;;;;4899608;29;20053;-80
2021/12/10 01:09:51;;;;;;;33.83;18.95;;;1.20;99.90;;;;;;4900188;29;20864;-80
2021/12/10 01:12:29;;;;;;;27.85;19.20;;;1.20;99.90;;;;;;4886867;29;20511;-81
2021/12/10 01:23:53;;;;;;;33.35;20.08;;;1.20;99.90;;;;;;4885946;29;20478;-81
2021/12/10 01:29:17;;;;;;;28.90;20.67;;;1.20;99.90;;;;;;4885134;29;20036;-81
2021/12/10 01:31:45;;;;;;;34.03;21.10;;;1.20;99.90;;;;;;4887299;29;20079;-81
2021/12/10 01:34:12;;;;;;;29.17;18.80;;;1.20;99.90;;;;;;4902028;29;20071;-82
2021/12/10 01:36:40;;;;;;;33.13;20.75;;;1.20;99.90;;;;;;4884683;29;20068;-81
2021/12/10 01:39:11;;;;;;;36.78;20.95;;;1.20;99.90;;;;;;4886466;29;20067;-81
2021/12/10 01:41:41;;;;;;;36.90;20.15;;;1.20;99.90;;;;;;4883035;29;20530;-81
2021/12/10 01:44:17;;;;;;;36.00;21.80;;;1.20;99.90;;;;;;4887347;29;20049;-81
2021/12/10 01:46:45;;;;;;;36.05;20.23;;;1.20;99.90;;;;;;4885992;29;20058;-81
2021/12/10 01:49:13;;;;;;;31.23;20.30;;;1.20;99.90;;;;;;4882954;29;20068;-81
2021/12/10 01:51:43;;;;;;;29.20;20.15;;;1.20;99.90;;;;;;4884764;29;20056;-81
2021/12/10 01:54:18;;;;;;;28.60;19.88;;;1.20;99.90;;;;;;4885978;29;20055;-81
2021/12/10 01:56:48;;;;;;;34.08;21.23;;;1.20;99.90;;;;;;4886036;29;20051;-81
2021/12/10 01:59:17;;;;;;;32.45;20.92;;;1.20;99.90;;;;;;4884943;29;20048;-81
2021/12/10 02:01:50;;;;;;;34.78;21.27;;;1.20;99.90;;;;;;4886553;29;20056;-82
2021/12/10 02:04:22;;;;;;;35.53;21.73;;;1.20;99.90;;;;;;4882902;29;20049;-81
2021/12/10 02:06:49;;;;;;;30.17;20.85;;;1.20;99.90;;;;;;4882742;29;20055;-81
2021/12/10 02:09:17;;;;;;;31.25;20.52;;;1.20;99.90;;;;;;4886103;29;20052;-81
2021/12/10 02:11:45;;;;;;;31.30;20.10;;;1.20;99.90;;;;;;4884203;29;20078;-81
2021/12/10 02:14:12;;;;;;;26.55;19.42;;;1.20;99.90;;;;;;4881510;29;20049;-81
2021/12/10 02:16:40;;;;;;;27.85;17.92;;;1.20;99.90;;;;;;4886059;29;20045;-81
2021/12/10 02:19:09;;;;;;;31.75;21.33;;;1.20;99.90;;;;;;4884505;29;24894;-81
2021/12/10 02:21:39;;;;;;;28.70;17.38;;;1.20;99.90;;;;;;4888112;29;20787;-81
2021/12/10 02:24:09;;;;;;;28.05;19.00;;;1.20;99.90;;;;;;4886303;29;20053;-81
2021/12/10 02:26:42;;;;;;;25.52;17.98;;;1.20;99.90;;;;;;4887932;29;20052;-81
2021/12/10 02:29:10;;;;;;;25.27;17.83;;;1.20;99.90;;;;;;4886561;29;20749;-81
2021/12/10 02:31:37;;;;;;;29.20;18.75;;;1.20;99.90;;;;;;4868461;29;20055;-81
2021/12/10 02:34:05;;;;;;;27.10;18.08;;;1.20;99.90;;;;;;4889372;29;20363;-81
2021/12/10 02:36:32;;;;;;;28.65;16.55;;;1.20;99.90;;;;;;4888612;29;20049;-81
2021/12/10 02:39:00;;;;;;;26.60;16.85;;;1.20;99.90;;;;;;4902451;29;20278;-81
2021/12/10 02:41:30;;;;;;;22.92;15.35;;;1.20;99.90;;;;;;4888164;29;20131;-81
2021/12/10 02:43:58;;;;;;;;;;;1.20;99.90;;;;;;4893366;29;20128;-81
2021/12/10 02:46:25;;;;;;;25.33;15.25;;;1.20;99.90;;;;;;4888368;29;19943;-81
2021/12/10 02:48:53;;;;;;;22.80;15.27;;;1.20;99.90;;;;;;4885897;29;20087;-81
2021/12/10 02:51:22;;;;;;;25.58;15.45;;;1.20;99.90;;;;;;4887534;29;20056;-81
2021/12/10 02:53:49;;;;;;;21.10;14.95;;;1.20;99.90;;;;;;4892184;29;20463;-81
2021/12/10 02:56:19;;;;;;;22.02;15.40;;;1.20;99.90;;;;;;4888539;29;20052;-81
2021/12/10 02:58:49;;;;;;;20.80;15.57;;;1.20;99.90;;;;;;4891444;29;20059;-81
2021/12/10 03:01:31;;;;;;;18.52;15.15;;;1.20;99.90;;;;;;4887211;29;20056;-81
2021/12/10 03:03:59;;;;;;;18.80;13.95;;;1.30;99.90;;;;;;4889427;29;20040;-81
2021/12/10 03:06:27;;;;;;;23.58;16.13;;;1.20;99.90;;;;;;4887787;29;20717;-81
2021/12/10 03:08:55;;;;;;;22.52;14.23;;;1.20;99.90;;;;;;4888791;29;20108;-81
2021/12/10 03:11:27;;;;;;;18.92;13.95;;;1.30;99.90;;;;;;4889487;29;20744;-81
2021/12/10 03:13:55;;;;;;;25.40;15.30;;;1.30;99.90;;;;;;4905628;29;20536;-81
2021/12/10 03:16:23;;;;;;;19.65;14.95;;;1.30;99.90;;;;;;4890301;29;20052;-81
2021/12/10 03:18:50;;;;;;;18.73;13.80;;;1.30;99.90;;;;;;4871211;29;20109;-82
2021/12/10 03:21:17;;;;;;;21.90;13.82;;;1.30;99.90;;;;;;4892337;29;20045;-82
2021/12/10 03:23:47;;;;;;;17.90;12.25;;;1.30;99.90;;;;;;4873686;29;20423;-83
2021/12/10 03:26:18;;;;;;;22.95;13.95;;;1.20;99.90;;;;;;4888379;29;20080;-82
2021/12/10 03:28:47;;;;;;;19.75;14.02;;;1.20;99.90;;;;;;4889245;29;20048;-82
2021/12/10 03:31:15;;;;;;;17.27;12.68;;;1.20;99.90;;;;;;4888040;29;20053;-83
2021/12/10 03:33:42;;;;;;;18.83;11.77;;;1.20;99.90;;;;;;4888783;29;20048;-83
2021/12/10 03:36:10;;;;;;;15.00;11.75;;;1.20;99.90;;;;;;4903524;29;20530;-83
2021/12/10 03:38:39;;;;;;;19.00;14.68;;;1.20;99.90;;;;;;4902203;29;20387;-83
2021/12/10 03:41:11;;;;;;;16.08;11.40;;;1.20;99.90;;;;;;4875801;29;24609;-83
2021/12/10 03:43:40;;;;;;;21.75;13.00;;;1.20;99.90;;;;;;4889698;29;20044;-83
2021/12/10 03:46:08;;;;;;;19.00;14.05;;;1.20;99.90;;;;;;4888490;29;20067;-83
2021/12/10 03:48:40;;;;;;;15.82;11.75;;;1.30;99.90;;;;;;4887587;29;20434;-83
2021/12/10 03:51:11;;;;;;;19.40;12.32;;;1.30;99.90;;;;;;4886546;29;20135;-83
2021/12/10 03:53:38;;;;;;;19.52;14.32;;;1.30;99.90;;;;;;4886356;29;20055;-83
2021/12/10 03:56:12;;;;;;;23.15;14.43;;;1.30;99.90;;;;;;4889093;29;20040;-83
2021/12/10 03:58:40;;;;;;;21.13;14.63;;;1.30;99.90;;;;;;4891159;29;20044;-82
2021/12/10 04:01:11;;;;;;;23.10;15.35;;;1.30;99.90;;;;;;4888149;29;20071;-81
2021/12/10 04:03:40;;;;;;;25.88;17.27;;;1.30;99.90;;;;;;4889563;29;20123;-81
2021/12/10 04:06:08;;;;;;;22.83;15.63;;;1.40;99.90;;;;;;4887499;29;20404;-81
2021/12/10 04:08:35;;;;;;;24.73;15.70;;;1.40;99.90;;;;;;4889485;29;20343;-81
2021/12/10 04:11:06;;;;;;;23.55;14.93;;;1.40;99.90;;;;;;4887651;29;20104;-82
2021/12/10 04:13:34;;;;;;;23.95;16.77;;;1.40;99.90;;;;;;4889027;29;20643;-82
2021/12/10 04:16:02;;;;;;;20.75;15.15;;;1.40;99.90;;;;;;4887962;29;20047;-82
2021/12/10 04:18:31;;;;;;;23.95;16.30;;;1.40;99.90;;;;;;4883282;29;20416;-82
2021/12/10 04:20:58;;;;;;;25.27;16.55;;;1.40;99.90;;;;;;4891392;29;20048;-82
2021/12/10 04:23:25;;;;;;;22.38;16.73;;;1.40;99.90;;;;;;4900300;29;20049;-81
2021/12/10 04:25:52;;;;;;;28.30;18.85;;;1.40;99.90;;;;;;4887947;29;20062;-82
2021/12/10 04:28:21;;;;;;;28.73;18.45;;;1.40;99.90;;;;;;4888109;29;20148;-82
2021/12/10 04:30:49;;;;;;;27.95;18.42;;;1.40;99.90;;;;;;4887064;29;20207;-82
2021/12/10 04:33:22;;;;;;;22.30;15.23;;;1.30;99.90;;;;;;4887765;29;20043;-82
2021/12/10 04:35:51;;;;;;;24.35;17.52;;;1.30;99.90;;;;;;4903205;29;20052;-82
2021/12/10 04:38:19;;;;;;;24.52;17.15;;;1.30;99.90;;;;;;4888738;29;20512;-82
2021/12/10 04:40:48;;;;;;;29.10;17.17;;;1.40;99.90;;;;;;4887964;29;20124;-82
2021/12/10 04:43:17;;;;;;;26.83;17.42;;;1.40;99.90;;;;;;4892774;29;20613;-82
2021/12/10 04:45:45;;;;;;;25.60;17.75;;;1.40;99.90;;;;;;4888645;29;20436;-82
2021/12/10 04:48:12;;;;;;;25.10;17.50;;;1.40;99.90;;;;;;4890735;29;20100;-82
2021/12/10 04:50:40;;;;;;;26.70;17.55;;;1.40;99.90;;;;;;4882421;29;20052;-82
2021/12/10 04:53:10;;;;;;;23.58;17.83;;;1.40;99.90;;;;;;4885534;29;20115;-82
2021/12/10 04:55:38;;;;;;;27.77;18.98;;;1.40;99.90;;;;;;4899941;29;20538;-82
2021/12/10 04:58:05;;;;;;;35.42;20.30;;;1.40;99.90;;;;;;4888156;29;20557;-82
2021/12/10 05:00:37;;;;;;;29.40;20.73;;;1.40;99.90;;;;;;4889035;29;20052;-82
2021/12/10 05:03:06;;;;;;;30.27;20.83;;;1.40;99.90;;;;;;4898896;29;20056;-82
2021/12/10 05:05:33;;;;;;;32.28;20.60;;;1.40;99.90;;;;;;4885898;29;20669;-82
2021/12/10 05:08:00;;;;;;;33.25;20.58;;;1.40;99.90;;;;;;4884821;29;20044;-82
2021/12/10 05:10:28;;;;;;;34.90;22.77;;;1.40;99.90;;;;;;4885621;29;20052;-82
2021/12/10 05:12:55;;;;;;;35.00;22.85;;;1.40;99.90;;;;;;4886196;29;20140;-82
2021/12/10 05:15:26;;;;;;;33.47;21.35;;;1.40;99.90;;;;;;4888280;29;20056;-82
2021/12/10 05:17:54;;;;;;;38.30;21.85;;;1.40;99.90;;;;;;4872241;29;20451;-82
2021/12/10 05:20:30;;;;;;;37.38;23.73;;;1.40;99.90;;;;;;4889603;29;20044;-82
2021/12/10 05:22:57;;;;;;;35.40;24.17;;;1.40;99.90;;;;;;4883488;29;21366;-82
2021/12/10 05:25:28;;;;;;;28.70;20.17;;;1.50;99.90;;;;;;4897288;29;20056;-82
2021/12/10 05:27:56;;;;;;;34.50;23.55;;;1.40;99.90;;;;;;4884215;29;20049;-82
2021/12/10 05:30:27;;;;;;;31.52;21.30;;;1.50;99.90;;;;;;4899556;29;20134;-82
2021/12/10 05:32:56;;;;;;;28.52;21.27;;;1.40;99.90;;;;;;4883663;29;20542;-82
2021/12/10 05:35:23;;;;;;;32.30;20.33;;;1.40;99.90;;;;;;4881250;29;20075;-81
2021/12/10 05:37:50;;;;;;;28.52;21.25;;;1.40;99.90;;;;;;4885812;29;20116;-82
2021/12/10 05:40:20;;;;;;;35.17;23.05;;;1.40;99.90;;;;;;4885064;29;20115;-82
2021/12/10 05:42:47;;;;;;;32.78;22.25;;;1.40;99.90;;;;;;4889794;29;20055;-82
2021/12/10 05:45:17;;;;;;;31.98;20.20;;;1.40;99.90;;;;;;4884905;29;20048;-82
2021/12/10 05:47:45;;;;;;;31.63;20.85;;;1.40;99.90;;;;;;4882867;29;20057;-82
2021/12/10 05:50:14;;;;;;;28.10;18.73;;;1.40;99.90;;;;;;4888333;29;20454;-82
2021/12/10 05:52:41;;;;;;;24.27;16.73;;;1.40;99.90;;;;;;4885706;29;20140;-82
2021/12/10 05:55:09;;;;;;;36.78;21.23;;;1.40;99.90;;;;;;4887443;29;20537;-81
2021/12/10 05:57:37;;;;;;;28.42;20.73;;;1.30;99.90;;;;;;4887168;29;20040;-81
2021/12/10 06:00:13;;;;;;;27.95;19.80;;;1.30;99.90;;;;;;4886877;29;20048;-82
2021/12/10 06:02:40;;;;;;;27.30;18.25;;;1.30;99.90;;;;;;4889943;29;20153;-82
2021/12/10 06:05:08;;;;;;;26.33;18.05;;;1.40;99.90;;;;;;4891083;29;20143;-82
2021/12/10 06:07:38;;;;;;;23.10;17.50;;;1.40;99.90;;;;;;4892014;29;20072;-82
2021/12/10 06:10:07;;;;;;;28.10;18.40;;;1.40;99.90;;;;;;4885860;29;20044;-82
2021/12/10 06:12:34;;;;;;;30.48;19.52;;;1.40;99.90;;;;;;4887671;29;20051;-82
2021/12/10 06:15:06;;;;;;;25.88;16.85;;;1.40;99.90;;;;;;4891678;29;20528;-82
2021/12/10 06:17:33;;;;;;;30.63;17.27;;;1.40;99.90;;;;;;4903537;29;20040;-82
2021/12/10 06:20:01;;;;;;;29.15;19.33;;;1.40;99.90;;;;;;4894210;29;20040;-82
2021/12/10 06:22:28;;;;;;;25.80;18.55;;;1.40;99.90;;;;;;4904125;29;20857;-82
2021/12/10 06:24:55;;;;;;;26.83;18.42;;;1.40;99.90;;;;;;4890537;29;20053;-82
2021/12/10 06:27:22;;;;;;;27.40;17.85;;;1.40;99.90;;;;;;4889816;29;20493;-82
2021/12/10 06:29:49;;;;;;;29.15;17.50;;;1.40;99.90;;;;;;4892220;29;20513;-82
2021/12/10 06:32:16;;;;;;;23.98;17.00;;;1.40;99.90;;;;;;4887382;29;20056;-82
2021/12/10 06:34:44;;;;;;;24.30;15.85;;;1.40;99.90;;;;;;4890918;29;20548;-82
2021/12/10 06:37:11;;;;;;;24.13;16.70;;;1.40;99.90;;;;;;4885156;29;20059;-82
2021/12/10 06:39:38;;;;;;;24.67;17.13;;;1.40;99.90;;;;;;4885979;29;20048;-82
2021/12/10 06:42:05;;;;;;;28.23;17.58;;;1.40;99.90;;;;;;4869503;29;20052;-82
2021/12/10 06:44:52;;;;;;;31.27;18.52;;;1.40;99.90;;;;;;4890949;29;20049;-82
2021/12/10 06:47:20;;;;;;;36.80;18.88;;;1.40;99.90;;;;;;4887993;29;20048;-82
2021/12/10 06:49:47;;;;;;;30.80;20.08;;;1.50;99.90;;;;;;4879267;29;20418;-82
2021/12/10 06:52:14;;;;;;;30.63;18.50;;;1.50;99.90;;;;;;4890887;29;20052;-82
2021/12/10 06:54:41;;;;;;;35.38;18.02;;;1.50;99.90;;;;;;4908805;29;20176;-82
2021/12/10 06:57:08;;;;;;;24.50;17.70;;;1.50;99.90;;;;;;4887822;29;20112;-82
2021/12/10 06:59:35;;;;;;;29.65;19.30;;;1.50;99.90;;;;;;4892328;29;20048;-82
2021/12/10 07:02:02;;;;;;;29.85;17.98;;;1.50;99.90;;;;;;4891179;29;20100;-82
2021/12/10 07:04:30;;;;;;;29.70;18.58;;;1.50;99.90;;;;;;4890802;29;20048;-83
2021/12/10 07:06:57;;;;;;;26.85;16.95;;;1.50;99.90;;;;;;4889589;29;20141;-83
2021/12/10 07:09:25;;;;;;;28.20;18.75;;;1.50;99.90;;;;;;4890428;29;20526;-83
2021/12/10 07:11:54;;;;;;;28.25;19.35;;;1.60;99.90;;;;;;4885517;29;20083;-82
2021/12/10 07:14:21;;;;;;;29.73;19.48;;;1.60;99.90;;;;;;4893006;29;20048;-82
2021/12/10 07:16:50;;;;;;;30.80;19.58;;;1.60;99.90;;;;;;4886321;29;20498;-82
2021/12/10 07:19:18;;;;;;;35.13;21.08;;;1.60;99.90;;;;;;4897107;29;20073;-82
2021/12/10 07:21:45;;;;;;;31.23;19.55;;;1.50;99.90;;;;;;4890542;29;20390;-82
2021/12/10 07:24:15;;;;;;;31.45;19.73;;;1.50;99.90;;;;;;4884420;29;20059;-82
2021/12/10 07:26:43;;;;;;;39.45;20.05;;;1.50;99.90;;;;;;4898504;29;20052;-82
2021/12/10 07:29:11;;;;;;;26.20;17.25;;;1.50;99.90;;;;;;4887073;29;20060;-82
2021/12/10 07:31:40;;;;;;;35.78;19.27;;;1.50;99.90;;;;;;4887322;29;20063;-82
2021/12/10 07:34:08;;;;;;;37.90;19.55;;;1.50;99.90;;;;;;4904769;29;20139;-82
2021/12/10 07:36:37;;;;;;;28.58;18.13;;;1.50;99.90;;;;;;4888607;29;20055;-82
2021/12/10 07:39:08;;;;;;;24.57;16.33;;;1.50;99.90;;;;;;4891146;29;20063;-82
2021/12/10 07:41:37;;;;;;;25.58;17.63;;;1.50;99.90;;;;;;4888542;29;20452;-82
2021/12/10 07:44:04;;;;;;;28.42;17.10;;;1.50;99.90;;;;;;4891212;29;20616;-82
2021/12/10 07:46:34;;;;;;;27.83;18.00;;;1.50;99.90;;;;;;4889474;29;20112;-82
2021/12/10 07:49:02;;;;;;;23.40;17.75;;;1.50;99.90;;;;;;4891580;29;20123;-81
2021/12/10 07:51:31;;;;;;;27.83;18.20;;;1.50;99.90;;;;;;4886203;29;20147;-82
2021/12/10 07:53:59;;;;;;;26.23;16.50;;;1.50;99.90;;;;;;4890704;29;20056;-82
2021/12/10 07:56:29;;;;;;;29.63;19.55;;;1.50;99.90;;;;;;4891344;29;20063;-83
2021/12/10 07:58:57;;;;;;;29.75;17.63;;;1.50;99.90;;;;;;4892887;29;20475;-83
2021/12/10 08:01:28;;;;;;;33.15;18.30;;;1.50;99.90;;;;;;4886926;29;20044;-83
2021/12/10 08:03:57;;;;;;;28.95;19.90;;;1.50;99.90;;;;;;4892861;29;20072;-83
2021/12/10 08:06:25;;;;;;;29.02;17.48;;;1.50;99.90;;;;;;4887993;29;20044;-83
2021/12/10 08:08:52;;;;;;;34.97;21.42;;;1.50;99.90;;;;;;4890211;29;20051;-83
2021/12/10 08:11:20;;;;;;;39.58;22.92;;;1.50;99.90;;;;;;4888367;29;20399;-83
2021/12/10 08:13:48;;;;;;;29.73;19.27;;;1.50;99.90;;;;;;4890449;29;20045;-82
2021/12/10 08:16:16;;;;;;;34.58;20.20;;;1.50;99.90;;;;;;4890064;29;20049;-82
2021/12/10 08:18:45;;;;;;;31.85;18.90;;;1.60;99.90;;;;;;4891457;29;20049;-82
2021/12/10 08:21:12;;;;;;;30.02;19.40;;;1.50;99.90;;;;;;4886163;29;20060;-82
2021/12/10 08:23:39;;;;;;;31.38;17.67;;;1.50;99.90;;;;;;4891820;29;20103;-82
2021/12/10 08:26:07;;;;;;;26.52;19.02;;;1.50;99.90;;;;;;4888533;29;20076;-82
2021/12/10 08:28:34;;;;;;;26.33;17.00;;;1.50;99.90;;;;;;4891328;29;20439;-82
2021/12/10 08:31:03;;;;;;;25.38;16.23;;;1.50;99.90;;;;;;4886234;29;20045;-82
2021/12/10 08:33:30;;;;;;;24.80;16.23;;;1.50;99.90;;;;;;4900141;29;20048;-82
2021/12/10 08:36:02;;;;;;;21.20;13.75;;;1.50;99.90;;;;;;4884700;29;20049;-82
2021/12/10 08:38:30;;;;;;;23.67;13.73;;;1.50;99.90;;;;;;4885678;29;20044;-82
2021/12/10 08:41:02;;;;;;;20.48;14.10;;;1.50;99.90;;;;;;4883469;29;20155;-82
2021/12/10 08:43:30;;;;;;;20.67;13.30;;;1.50;99.90;;;;;;4898399;29;20047;-82
2021/12/10 08:45:58;;;;;;;17.65;13.07;;;1.50;99.90;;;;;;4887243;29;20398;-82
2021/12/10 08:48:28;;;;;;;21.35;12.38;;;1.50;99.90;;;;;;4886131;29;20059;-82
2021/12/10 08:50:58;;;;;;;18.50;12.13;;;1.50;99.90;;;;;;4885226;29;20056;-82
2021/12/10 08:53:25;;;;;;;17.55;10.80;;;1.50;99.90;;;;;;4900617;29;20135;-82
2021/12/10 08:55:55;;;;;;;23.48;11.18;;;1.50;99.90;;;;;;4884273;29;20076;-82
2021/12/10 08:58:23;;;;;;;16.05;11.73;;;1.50;99.90;;;;;;4885787;29;20150;-82
2021/12/10 09:00:54;;;;;;;17.52;11.05;;;1.50;99.90;;;;;;4885292;29;20092;-82
2021/12/10 09:03:44;;;;;;;19.48;11.98;;;1.50;99.90;;;;;;4887668;29;20052;-82
2021/12/10 09:06:12;;;;;;;16.98;10.88;;;1.50;99.90;;;;;;4901691;29;20037;-82
2021/12/10 09:08:40;;;;;;;16.35;11.35;;;1.50;99.90;;;;;;4885925;29;20045;-82
2021/12/10 09:11:10;;;;;;;17.52;11.05;;;1.50;99.90;;;;;;4881851;29;20052;-82
2021/12/10 09:13:37;;;;;;;19.75;10.48;;;1.50;99.90;;;;;;4887566;29;20124;-82
2021/12/10 09:16:09;;;;;;;13.90;9.63;;;1.50;99.90;;;;;;4885351;29;20060;-82
2021/12/10 09:18:39;;;;;;;16.08;11.35;;;1.50;99.90;;;;;;4901400;29;20127;-82
2021/12/10 09:21:08;;;;;;;17.45;11.90;;;1.50;99.90;;;;;;4884339;29;20053;-82
2021/12/10 09:23:36;;;;;;;18.08;12.30;;;1.50;99.90;;;;;;4887811;29;20048;-82
2021/12/10 09:26:07;;;;;;;16.17;10.77;;;1.50;99.90;;;;;;4885027;29;20045;-83
2021/12/10 09:28:37;;;;;;;18.75;11.55;;;1.50;99.90;;;;;;4881955;29;20167;-83
2021/12/10 09:31:05;;;;;;;12.93;9.55;;;1.50;99.90;;;;;;4885315;29;20505;-83
2021/12/10 09:33:32;;;;;;;12.63;9.73;;;1.50;99.90;;;;;;4885782;29;20091;-83
2021/12/10 09:36:00;;;;;;;21.98;11.48;;;1.50;99.90;;;;;;4874728;29;20055;-83
2021/12/10 09:38:27;;;;;;;15.95;10.40;;;1.50;99.90;;;;;;4908102;29;20048;-83
2021/12/10 09:41:02;;;;;;;16.80;10.43;;;1.60;99.90;;;;;;4890681;29;20143;-82
2021/12/10 09:43:30;;;;;;;16.17;10.57;;;1.50;99.90;;;;;;4891486;29;20138;-82
2021/12/10 09:45:57;;;;;;;19.45;10.68;;;1.50;99.90;;;;;;4907126;29;20065;-83
2021/12/10 09:48:25;;;;;;;12.27;9.20;;;1.50;99.90;;;;;;4894006;29;20059;-83
2021/12/10 09:51:02;;;;;;;13.82;10.95;;;1.50;99.90;;;;;;4893666;29;20104;-83
2021/12/10 09:53:33;;;;;;;12.10;8.93;;;1.50;99.90;;;;;;4891583;29;20060;-83
2021/12/10 09:56:00;;;;;;;14.55;9.05;;;1.60;99.90;;;;;;4892374;29;20052;-83
2021/12/10 09:58:29;;;;;;;14.52;10.30;;;1.60;99.90;;;;;;4888486;29;20051;-83
2021/12/10 10:01:09;;;;;;;13.75;8.82;;;1.60;99.90;;;;;;4891085;29;20577;-83
2021/12/10 10:03:38;;;;;;;;;;;1.60;99.90;;;;;;4892960;29;20053;-83
2021/12/10 10:06:07;;;;;;;11.73;9.30;;;1.60;99.90;;;;;;4893361;29;20009;-83
2021/12/10 10:08:35;;;;;;;9.93;8.07;;;1.60;99.90;;;;;;4893101;29;21069;-82
2021/12/10 10:11:15;;;;;;;11.98;8.80;;;1.60;99.90;;;;;;4890684;29;20048;-82
2021/12/10 10:13:46;;;;;;;11.35;8.35;;;1.60;99.90;;;;;;4890814;29;20719;-82
2021/12/10 10:16:13;;;;;;;11.63;8.50;;;1.60;99.90;;;;;;4890361;29;20193;-82
2021/12/10 10:18:43;;;;;;;14.75;8.93;;;1.60;99.90;;;;;;4891124;29;20044;-82
2021/12/10 10:21:21;;;;;;;11.40;8.65;;;1.60;99.90;;;;;;4891133;29;20151;-82
2021/12/10 10:23:48;;;;;;;11.98;8.70;;;1.60;99.90;;;;;;4871697;29;20051;-82
2021/12/10 10:26:20;;;;;;;10.88;8.13;;;1.60;99.90;;;;;;4890095;29;20049;-83
2021/12/10 10:28:48;;;;;;;10.57;7.18;;;1.60;99.90;;;;;;4892384;29;20540;-83
2021/12/10 10:31:21;;;;;;;11.05;7.65;;;1.60;99.90;;;;;;4888628;29;20048;-83
2021/12/10 10:33:51;;;;;;;9.63;7.15;;;1.70;99.90;;;;;;4892925;29;20052;-83
2021/12/10 10:36:23;;;;;;;11.50;8.32;;;1.70;99.90;;;;;;4889072;29;20351;-83
2021/12/10 10:39:09;;;;;;;10.95;6.95;;;1.60;99.90;;;;;;4890755;29;20048;-83
2021/12/10 10:41:45;;;;;;;11.48;7.53;;;1.60;99.90;;;;;;4903581;29;20143;-83
2021/12/10 10:44:13;;;;;;;11.57;6.57;;;1.60;99.90;;;;;;4889729;29;20064;-83
2021/12/10 10:46:40;;;;;;;9.15;7.43;;;1.60;99.90;;;;;;4886996;29;20714;-83
2021/12/10 10:49:07;;;;;;;9.80;7.03;;;1.60;99.90;;;;;;4886298;29;20056;-83
2021/12/10 10:51:38;;;;;;;8.43;6.93;;;1.60;99.90;;;;;;4887339;29;20045;-83
2021/12/10 10:54:10;;;;;;;9.90;7.68;;;1.70;99.90;;;;;;4889017;29;20048;-83
2021/12/10 10:56:46;;;;;;;12.25;7.85;;;1.70;99.90;;;;;;4888026;29;20055;-83
2021/12/10 10:59:23;;;;;;;9.48;6.75;;;1.70;99.90;;;;;;4886298;29;20183;-83
2021/12/10 11:01:59;;;;;;;9.95;6.93;;;1.70;99.90;;;;;;4886686;29;20045;-83
2021/12/10 11:04:34;;;;;;;10.73;7.68;;;1.70;99.90;;;;;;4885814;29;20036;-83
2021/12/10 11:07:13;;;;;;;8.05;7.22;;;1.70;99.90;;;;;;4892829;29;20359;-83
2021/12/10 11:09:52;;;;;;;9.20;7.75;;;1.70;99.90;;;;;;4896851;29;20053;-83
2021/12/10 11:12:28;;;;;;;9.45;7.30;;;1.80;99.90;;;;;;4886216;29;20059;-83
2021/12/10 11:14:58;;;;;;;12.48;8.27;;;1.80;99.90;;;;;;4884673;29;20045;-83
2021/12/10 11:17:35;;;;;;;8.98;6.40;;;1.70;99.90;;;;;;4886928;29;20048;-83
2021/12/10 11:20:13;;;;;;;13.02;8.77;;;1.80;99.90;;;;;;4887231;29;20048;-83
2021/12/10 11:22:47;;;;;;;14.55;9.20;;;1.80;99.90;;;;;;4885292;29;20064;-83
2021/12/10 11:25:25;;;;;;;9.93;8.18;;;1.70;99.90;;;;;;4883422;29;20052;-82
2021/12/10 11:28:05;;;;;;;10.23;8.07;;;1.70;99.90;;;;;;4886283;29;20418;-82
2021/12/10 11:30:33;;;;;;;13.93;10.65;;;1.70;99.90;;;;;;4885170;29;20060;-81
2021/12/10 11:33:19;;;;;;;13.85;9.75;;;1.60;99.90;;;;;;4883149;29;20075;-81
2021/12/10 11:35:51;;;;;;;14.88;10.15;;;1.60;99.90;;;;;;4885180;29;20139;-82
2021/12/10 11:38:25;;;;;;;12.77;10.00;;;1.60;99.90;;;;;;4901081;29;20052;-82
2021/12/10 11:41:15;;;;;;;17.98;14.30;;;1.60;99.90;;;;;;4884606;29;20045;-82
2021/12/10 11:44:06;;;;;;;17.20;12.02;;;1.60;99.90;;;;;;4878841;29;20048;-82
2021/12/10 11:49:25;;;;;;;17.20;12.55;;;1.60;99.90;;;;;;4886804;29;20360;-82
2021/12/10 11:52:01;;;;;;;20.02;12.57;;;1.60;99.90;;;;;;4892370;29;20051;-82
2021/12/10 11:54:37;;;;;;;20.45;13.88;;;1.60;99.90;;;;;;4888571;29;20136;-82
2021/12/10 11:57:19;;;;;;;17.60;12.30;;;1.60;99.90;;;;;;4886136;29;20048;-82
2021/12/10 11:59:48;;;;;;;22.08;14.65;;;1.60;99.90;;;;;;4890258;29;20053;-82
2021/12/10 12:02:25;;;;;;;25.83;14.75;;;1.60;99.90;;;;;;4905748;29;20132;-82
2021/12/10 12:05:09;;;;;;;21.70;14.75;;;1.60;99.90;;;;;;4887483;29;20144;-82
2021/12/10 12:07:40;;;;;;;22.60;16.70;;;1.60;99.90;;;;;;4888734;29;20370;-82
2021/12/10 12:10:19;;;;;;;22.10;13.57;;;1.70;99.90;;;;;;4891056;29;20049;-83
2021/12/10 12:12:53;;;;;;;22.88;13.70;;;1.70;99.90;;;;;;4888406;29;20083;-82
2021/12/10 12:15:35;;;;;;;19.55;14.15;;;1.70;99.90;;;;;;4888228;29;20147;-82
2021/12/10 12:18:27;;;;;;;19.85;16.08;;;1.70;99.90;;;;;;4889850;29;20045;-82
2021/12/10 12:21:55;;;;;;;16.00;11.27;;;1.70;99.90;;;;;;4881432;29;20786;-82
2021/12/10 12:27:12;;;;;;;16.88;12.55;;;1.70;99.90;;;;;;4885657;29;20037;-82
2021/12/10 12:30:05;;;;;;;17.33;12.15;;;1.60;99.90;;;;;;4883944;29;20044;-82
2021/12/10 12:32:43;;;;;;;15.20;12.10;;;1.60;99.90;;;;;;4888416;29;20071;-82
2021/12/10 12:35:24;;;;;;;15.45;11.50;;;1.60;99.90;;;;;;4888991;29;20052;-82
2021/12/10 12:38:04;;;;;;;14.52;11.13;;;1.60;99.90;;;;;;4888820;29;20406;-82
2021/12/10 12:41:25;;;;;;;14.10;12.00;;;1.60;99.90;;;;;;4889501;29;20045;-82
2021/12/10 12:44:19;;;;;;;16.42;11.55;;;1.60;99.90;;;;;;4896685;29;20511;-82
2021/12/10 12:47:19;;;;;;;15.30;11.60;;;1.50;99.90;;;;;;4884475;29;20088;-82
2021/12/10 12:49:49;;;;;;;12.80;11.33;;;1.60;99.90;;;;;;4888229;29;20052;-82
2021/12/10 12:52:23;;;;;;;16.08;11.38;;;1.50;99.90;;;;;;4885888;29;20053;-82
2021/12/10 12:55:22;;;;;;;14.40;11.27;;;1.50;99.90;;;;;;4887773;29;20485;-82
2021/12/10 12:57:59;;;;;;;12.60;10.48;;;1.40;99.90;;;;;;4878895;29;20132;-82
2021/12/10 13:01:02;;;;;;;14.73;10.55;;;1.40;99.90;;;;;;4886316;29;20048;-82
2021/12/10 13:03:45;;;;;;;14.55;11.18;;;1.40;99.90;;;;;;4884232;29;20063;-82
2021/12/10 13:06:46;;;;;;;13.25;11.15;;;1.40;99.90;;;;;;4886305;29;20092;-82
2021/12/10 13:09:29;;;;;;;15.80;11.55;;;1.40;99.90;;;;;;4886467;29;20062;-82
2021/12/10 13:12:12;;;;;;;14.43;10.40;;;1.40;99.90;;;;;;4885685;29;20148;-82
2021/12/10 13:14:54;;;;;;;14.27;11.07;;;1.40;99.90;;;;;;4881785;29;20076;-82
2021/12/10 13:17:42;;;;;;;15.40;10.80;;;1.40;99.90;;;;;;4884549;29;20045;-82
2021/12/10 13:20:22;;;;;;;13.40;10.02;;;1.50;99.90;;;;;;4882626;29;20080;-82